createdAt,value
2018-06-09T00:00:57.807Z,33.63
2018-06-09T00:03:31.803Z,34.23
2018-06-09T00:06:05.882Z,35.43
2018-06-09T00:08:39.705Z,37.13
2018-06-09T00:11:13.695Z,35.15
2018-06-09T00:13:47.760Z,34.50
2018-06-09T00:16:28.588Z,33.42
2018-06-09T00:19:02.645Z,35.28
2018-06-09T00:21:36.398Z,38.28
2018-06-09T00:24:10.149Z,33.23
2018-06-09T00:26:44.043Z,35.78
2018-06-09T00:29:18.255Z,37.73
2018-06-09T00:31:52.342Z,39.58
2018-06-09T00:34:26.226Z,39.35
2018-06-09T00:37:00.199Z,37.10
2018-06-09T00:39:34.763Z,41.58
2018-06-09T00:42:08.791Z,41.18
2018-06-09T00:44:43.145Z,39.50
2018-06-09T00:47:17.231Z,42.30
2018-06-09T00:49:51.131Z,40.92
2018-06-09T00:52:25.255Z,41.88
2018-06-09T00:54:59.080Z,44.42
2018-06-09T00:57:32.934Z,43.78
2018-06-09T01:00:06.973Z,44.55
2018-06-09T01:02:41.055Z,45.20
2018-06-09T01:05:15.279Z,45.43
2018-06-09T01:07:49.165Z,42.33
2018-06-09T01:10:23.135Z,42.85
2018-06-09T01:12:57.420Z,46.92
2018-06-09T01:15:31.229Z,46.77
2018-06-09T01:18:05.235Z,47.15
2018-06-09T01:20:39.255Z,45.35
2018-06-09T01:23:13.253Z,47.53
2018-06-09T01:25:47.525Z,47.85
2018-06-09T01:28:21.605Z,47.80
2018-06-09T01:30:55.567Z,46.55
2018-06-09T01:33:29.733Z,47.75
2018-06-09T01:36:03.560Z,42.85
2018-06-09T01:38:37.468Z,43.52
2018-06-09T01:41:11.385Z,49.63
2018-06-09T01:43:45.455Z,49.45
2018-06-09T01:46:19.484Z,48.38
2018-06-09T01:48:53.351Z,49.63
2018-06-09T01:51:27.393Z,49.18
2018-06-09T01:54:01.253Z,49.73
2018-06-09T01:56:34.908Z,50.12
2018-06-09T01:59:08.941Z,54.20
2018-06-09T02:01:43.022Z,48.90
2018-06-09T02:04:16.971Z,48.45
2018-06-09T02:06:50.727Z,54.70
2018-06-09T02:09:24.742Z,54.63
2018-06-09T02:11:58.636Z,53.92
2018-06-09T02:14:32.744Z,58.68
2018-06-09T02:17:06.522Z,59.05
2018-06-09T02:19:40.579Z,59.30
2018-06-09T02:22:14.315Z,59.30
2018-06-09T02:24:48.477Z,61.20
2018-06-09T02:27:22.639Z,60.40
2018-06-09T02:29:56.527Z,58.80
2018-06-09T02:32:30.354Z,62.67
2018-06-09T02:35:04.642Z,56.33
2018-06-09T02:37:38.602Z,57.70
2018-06-09T02:40:12.445Z,56.40
2018-06-09T02:42:46.275Z,58.75
2018-06-09T02:45:20.372Z,55.78
2018-06-09T02:47:54.403Z,59.75
2018-06-09T02:50:28.307Z,60.90
2018-06-09T02:53:02.243Z,62.62
2018-06-09T02:55:36.741Z,62.08
2018-06-09T02:58:11.982Z,64.37
2018-06-09T03:00:46.133Z,62.40
2018-06-09T03:03:20.123Z,60.40
2018-06-09T03:05:54.383Z,56.48
2018-06-09T03:08:28.538Z,59.53
2018-06-09T03:11:02.338Z,59.20
2018-06-09T03:13:36.153Z,60.05
2018-06-09T03:16:10.543Z,59.25
2018-06-09T03:18:44.320Z,64.85
2018-06-09T03:21:18.079Z,59.48
2018-06-09T03:23:52.243Z,64.25
2018-06-09T03:26:26.134Z,61.48
2018-06-09T03:28:59.969Z,58.35
2018-06-09T03:31:33.872Z,64.50
2018-06-09T03:34:07.808Z,60.28
2018-06-09T03:36:41.777Z,60.70
2018-06-09T03:39:15.723Z,65.15
2018-06-09T03:41:49.907Z,62.50
2018-06-09T03:44:23.879Z,58.15
2018-06-09T03:46:58.200Z,64.85
2018-06-09T03:49:32.094Z,64.35
2018-06-09T03:52:06.344Z,63.55
2018-06-09T03:54:40.439Z,64.17
2018-06-09T03:57:14.648Z,67.42
2018-06-09T03:59:48.689Z,59.98
2018-06-09T04:02:22.618Z,62.70
2018-06-09T04:04:56.997Z,59.42
2018-06-09T04:07:31.094Z,62.85
2018-06-09T04:10:05.024Z,59.30
2018-06-09T04:12:39.093Z,61.37
2018-06-09T04:15:13.243Z,64.58
2018-06-09T04:17:47.143Z,63.13
2018-06-09T04:20:21.427Z,63.87
2018-06-09T04:22:55.348Z,68.45
2018-06-09T04:25:29.747Z,68.52
2018-06-09T04:28:03.666Z,58.98
2018-06-09T04:30:37.699Z,57.33
2018-06-09T04:33:12.797Z,60.63
2018-06-09T04:35:46.673Z,60.03
2018-06-09T04:38:20.705Z,61.23
2018-06-09T04:40:54.420Z,65.22
2018-06-09T04:43:28.386Z,56.60
2018-06-09T04:46:02.446Z,58.60
2018-06-09T04:48:36.235Z,57.70
2018-06-09T04:51:10.414Z,56.92
2018-06-09T04:53:44.489Z,57.33
2018-06-09T04:56:19.476Z,56.50
2018-06-09T04:58:53.560Z,55.73
2018-06-09T05:01:27.638Z,61.53
2018-06-09T05:04:02.022Z,57.55
2018-06-09T05:06:36.736Z,63.95
2018-06-09T05:09:11.483Z,54.35
2018-06-09T05:11:45.667Z,60.20
2018-06-09T05:14:19.649Z,58.42
2018-06-09T05:16:53.493Z,57.80
2018-06-09T05:19:27.578Z,59.23
2018-06-09T05:22:02.279Z,59.93
2018-06-09T05:24:36.504Z,56.00
2018-06-09T05:27:10.495Z,61.02
2018-06-09T05:29:44.455Z,58.08
2018-06-09T05:32:18.501Z,52.20
2018-06-09T05:34:53.179Z,56.50
2018-06-09T05:37:27.085Z,52.65
2018-06-09T05:40:00.945Z,50.75
2018-06-09T05:42:34.934Z,55.85
2018-06-09T05:45:09.025Z,51.60
2018-06-09T05:47:43.140Z,58.13
2018-06-09T05:50:16.935Z,56.70
2018-06-09T05:52:51.044Z,58.92
2018-06-09T05:55:25.267Z,57.88
2018-06-09T05:57:59.159Z,58.25
2018-06-09T06:00:33.158Z,53.65
2018-06-09T06:03:07.691Z,52.95
2018-06-09T06:05:41.622Z,52.23
2018-06-09T06:08:15.838Z,49.23
2018-06-09T06:10:49.722Z,52.73
2018-06-09T06:13:24.000Z,52.40
2018-06-09T06:15:57.839Z,55.70
2018-06-09T06:18:32.211Z,53.63
2018-06-09T06:21:06.335Z,49.05
2018-06-09T06:23:40.384Z,48.65
2018-06-09T06:26:14.520Z,45.43
2018-06-09T06:28:48.901Z,49.13
2018-06-09T06:31:22.856Z,46.80
2018-06-09T06:33:56.899Z,48.15
2018-06-09T06:36:30.866Z,52.17
2018-06-09T06:39:08.159Z,48.92
2018-06-09T06:41:42.082Z,48.00
2018-06-09T06:44:16.128Z,44.10
2018-06-09T06:46:50.755Z,46.90
2018-06-09T06:49:24.874Z,47.50
2018-06-09T06:51:59.046Z,44.45
2018-06-09T06:54:32.995Z,41.90
2018-06-09T06:57:07.195Z,43.48
2018-06-09T06:59:41.430Z,41.85
2018-06-09T07:02:15.590Z,39.92
2018-06-09T07:04:49.605Z,39.55
2018-06-09T07:07:23.818Z,39.30
2018-06-09T07:09:58.119Z,40.88
2018-06-09T07:12:32.740Z,40.48
2018-06-09T07:15:07.115Z,41.42
2018-06-09T07:17:41.051Z,40.25
2018-06-09T07:20:15.307Z,39.85
2018-06-09T07:22:49.691Z,41.53
2018-06-09T07:25:23.744Z,39.35
2018-06-09T07:27:57.684Z,38.88
2018-06-09T07:30:32.072Z,38.70
2018-06-09T07:33:06.198Z,38.80
2018-06-09T07:35:40.507Z,37.93
2018-06-09T07:38:14.496Z,36.80
2018-06-09T07:40:48.540Z,38.75
2018-06-09T07:43:22.544Z,37.15
2018-06-09T07:45:57.255Z,37.90
2018-06-09T07:48:31.745Z,38.58
2018-06-09T07:51:06.111Z,38.85
2018-06-09T07:53:40.299Z,35.68
2018-06-09T07:56:14.082Z,37.75
2018-06-09T07:58:48.659Z,38.65
2018-06-09T08:01:22.605Z,39.13
2018-06-09T08:03:56.716Z,39.60
2018-06-09T08:06:30.857Z,39.40
2018-06-09T08:09:05.989Z,38.38
2018-06-09T08:11:39.918Z,35.68
2018-06-09T08:14:14.074Z,38.78
2018-06-09T08:16:48.197Z,35.85
2018-06-09T08:19:22.393Z,38.08
2018-06-09T08:21:56.611Z,36.85
2018-06-09T08:24:31.088Z,36.58
2018-06-09T08:27:05.525Z,36.93
2018-06-09T08:29:39.765Z,38.78
2018-06-09T08:32:13.856Z,37.40
2018-06-09T08:34:48.166Z,36.60
2018-06-09T08:37:22.176Z,38.95
2018-06-09T08:39:56.311Z,38.78
2018-06-09T08:42:31.373Z,37.85
2018-06-09T08:45:05.431Z,37.88
2018-06-09T08:47:39.552Z,38.55
2018-06-09T08:50:13.955Z,37.15
2018-06-09T08:52:48.121Z,37.67
2018-06-09T08:55:22.140Z,36.55
2018-06-09T08:57:56.057Z,35.00
2018-06-09T09:00:30.419Z,33.88
2018-06-09T09:03:04.659Z,34.92
2018-06-09T09:05:39.106Z,35.25
2018-06-09T09:08:13.315Z,40.75
2018-06-09T09:10:47.771Z,35.95
2018-06-09T09:13:22.494Z,35.85
2018-06-09T09:15:56.656Z,35.58
2018-06-09T09:18:31.052Z,34.33
2018-06-09T09:21:05.597Z,37.42
2018-06-09T09:23:39.490Z,35.23
2018-06-09T09:26:13.528Z,32.60
2018-06-09T09:28:47.631Z,32.93
2018-06-09T09:31:21.550Z,32.85
2018-06-09T09:33:55.635Z,34.88
2018-06-09T09:36:29.968Z,34.67
2018-06-09T09:39:07.159Z,31.02
2018-06-09T09:41:41.695Z,31.70
2018-06-09T09:44:16.281Z,32.13
2018-06-09T09:46:50.056Z,33.78
2018-06-09T09:49:24.210Z,28.80
2018-06-09T09:51:58.294Z,29.85
2018-06-09T09:54:32.532Z,30.77
2018-06-09T09:57:06.310Z,30.88
2018-06-09T09:59:40.461Z,28.57
2018-06-09T10:02:14.671Z,30.17
2018-06-09T10:04:48.778Z,29.48
2018-06-09T10:07:22.897Z,29.63
2018-06-09T10:09:56.844Z,29.18
2018-06-09T10:12:35.441Z,28.38
2018-06-09T10:15:09.515Z,32.38
2018-06-09T10:17:43.616Z,27.40
2018-06-09T10:20:17.759Z,24.25
2018-06-09T10:22:51.797Z,25.85
2018-06-09T10:25:25.589Z,28.95
2018-06-09T10:27:59.864Z,29.70
2018-06-09T10:30:33.874Z,26.68
2018-06-09T10:33:11.042Z,29.32
2018-06-09T10:35:45.098Z,26.82
2018-06-09T10:38:19.515Z,26.87
2018-06-09T10:40:53.742Z,28.30
2018-06-09T10:43:28.048Z,25.05
2018-06-09T10:46:01.980Z,26.23
2018-06-09T10:48:36.935Z,27.45
2018-06-09T10:51:11.289Z,24.95
2018-06-09T10:53:45.163Z,24.57
2018-06-09T10:56:19.250Z,27.35
2018-06-09T10:58:53.559Z,26.42
2018-06-09T11:01:27.576Z,24.23
2018-06-09T11:04:01.682Z,22.52
2018-06-09T11:06:36.010Z,22.60
2018-06-09T11:09:10.120Z,23.27
2018-06-09T11:11:44.452Z,23.18
2018-06-09T11:14:18.537Z,22.77
2018-06-09T11:16:52.654Z,23.27
2018-06-09T11:19:26.801Z,21.97
2018-06-09T11:22:01.056Z,22.85
2018-06-09T11:24:35.322Z,22.58
2018-06-09T11:27:09.868Z,22.90
2018-06-09T11:29:44.228Z,23.00
2018-06-09T11:32:18.176Z,17.95
2018-06-09T11:34:53.395Z,21.55
2018-06-09T11:37:27.920Z,21.42
2018-06-09T11:40:01.831Z,21.50
2018-06-09T11:42:36.257Z,22.37
2018-06-09T11:45:10.477Z,18.42
2018-06-09T11:47:44.990Z,18.90
2018-06-09T11:50:19.317Z,17.40
2018-06-09T11:52:53.777Z,17.73
2018-06-09T11:55:27.772Z,14.95
2018-06-09T11:58:01.997Z,17.30
2018-06-09T12:00:35.896Z,15.35
2018-06-09T12:03:10.429Z,15.68
2018-06-09T12:05:44.486Z,17.40
2018-06-09T12:08:18.561Z,17.17
2018-06-09T12:10:52.625Z,18.27
2018-06-09T12:13:26.876Z,20.00
2018-06-09T12:16:01.086Z,20.08
2018-06-09T12:18:34.986Z,14.60
2018-06-09T12:21:09.144Z,16.95
2018-06-09T12:23:43.679Z,17.37
2018-06-09T12:26:17.772Z,14.43
2018-06-09T12:28:52.327Z,13.95
2018-06-09T12:31:26.327Z,13.70
2018-06-09T12:34:00.503Z,15.95
2018-06-09T12:36:34.480Z,15.95
2018-06-09T12:39:08.615Z,14.70
2018-06-09T12:41:42.876Z,14.65
2018-06-09T12:44:17.531Z,14.28
2018-06-09T12:46:51.950Z,14.80
2018-06-09T12:49:26.141Z,12.93
2018-06-09T12:52:00.048Z,13.25
2018-06-09T12:54:34.216Z,12.28
2018-06-09T12:57:08.533Z,12.33
2018-06-09T12:59:42.775Z,12.00
2018-06-09T13:02:17.741Z,14.58
2018-06-09T13:04:52.077Z,11.78
2018-06-09T13:07:25.994Z,14.25
2018-06-09T13:10:00.430Z,13.00
2018-06-09T13:12:34.349Z,12.63
2018-06-09T13:15:08.409Z,12.68
2018-06-09T13:17:42.507Z,13.95
2018-06-09T13:20:16.583Z,12.70
2018-06-09T13:22:50.550Z,13.60
2018-06-09T13:25:25.526Z,11.35
2018-06-09T13:27:59.516Z,11.70
2018-06-09T13:30:33.710Z,10.58
2018-06-09T13:33:08.065Z,12.03
2018-06-09T13:35:42.800Z,12.15
2018-06-09T13:38:16.991Z,11.63
2018-06-09T13:40:52.854Z,11.88
2018-06-09T13:43:27.085Z,11.35
2018-06-09T13:46:01.236Z,12.05
2018-06-09T13:48:35.302Z,12.55
2018-06-09T13:51:09.515Z,11.57
2018-06-09T13:53:43.556Z,11.35
2018-06-09T13:56:18.465Z,11.85
2018-06-09T13:58:53.358Z,11.38
2018-06-09T14:01:28.306Z,11.48
2018-06-09T14:04:02.488Z,11.50
2018-06-09T14:06:36.600Z,11.60
2018-06-09T14:09:10.986Z,10.75
2018-06-09T14:11:45.054Z,13.25
2018-06-09T14:14:19.047Z,10.95
2018-06-09T14:16:53.172Z,10.68
2018-06-09T14:19:27.404Z,10.05
2018-06-09T14:22:01.143Z,9.10
2018-06-09T14:24:35.110Z,9.65
2018-06-09T14:27:09.555Z,9.05
2018-06-09T14:29:43.625Z,11.60
2018-06-09T14:32:17.761Z,9.80
2018-06-09T14:34:51.625Z,14.78
2018-06-09T14:37:25.620Z,8.78
2018-06-09T14:39:59.962Z,9.03
2018-06-09T14:42:34.549Z,9.53
2018-06-09T14:45:08.497Z,9.58
2018-06-09T14:47:42.669Z,9.08
2018-06-09T14:50:17.122Z,9.83
2018-06-09T14:52:52.095Z,9.78
2018-06-09T14:55:26.101Z,10.58
2018-06-09T14:58:00.165Z,10.35
2018-06-09T15:00:34.510Z,13.43
2018-06-09T15:03:09.148Z,10.70
2018-06-09T15:05:43.115Z,11.65
2018-06-09T15:08:17.224Z,11.45
2018-06-09T15:10:51.203Z,12.43
2018-06-09T15:13:25.524Z,12.50
2018-06-09T15:15:59.499Z,11.25
2018-06-09T15:18:33.906Z,12.82
2018-06-09T15:21:07.960Z,15.08
2018-06-09T15:23:48.511Z,12.10
2018-06-09T15:26:22.833Z,11.63
2018-06-09T15:28:57.932Z,11.83
2018-06-09T15:31:32.188Z,11.68
2018-06-09T15:34:06.275Z,12.70
2018-06-09T15:36:40.436Z,13.93
2018-06-09T15:39:14.641Z,16.32
2018-06-09T15:41:49.001Z,15.32
2018-06-09T15:44:23.510Z,13.98
2018-06-09T15:46:57.421Z,14.43
2018-06-09T15:49:31.766Z,11.83
2018-06-09T15:52:05.812Z,12.47
2018-06-09T15:54:40.728Z,11.60
2018-06-09T15:57:15.056Z,11.60
2018-06-09T15:59:49.397Z,11.05
2018-06-09T16:02:23.388Z,11.83
2018-06-09T16:04:57.451Z,10.53
2018-06-09T16:07:31.495Z,9.73
2018-06-09T16:10:05.850Z,10.38
2018-06-09T16:12:39.934Z,10.00
2018-06-09T16:15:14.233Z,9.35
2018-06-09T16:17:48.380Z,9.60
2018-06-09T16:20:22.783Z,9.85
2018-06-09T16:22:57.753Z,8.45
2018-06-09T16:25:31.873Z,9.33
2018-06-09T16:28:05.896Z,8.68
2018-06-09T16:30:40.024Z,8.00
2018-06-09T16:33:20.802Z,7.78
2018-06-09T16:35:55.245Z,8.15
2018-06-09T16:38:29.606Z,8.48
2018-06-09T16:41:04.012Z,8.45
2018-06-09T16:43:38.310Z,8.25
2018-06-09T16:46:12.596Z,9.23
2018-06-09T16:48:46.632Z,9.20
2018-06-09T16:51:20.705Z,9.30
2018-06-09T16:53:54.452Z,10.00
2018-06-09T16:56:28.377Z,10.50
2018-06-09T16:59:02.529Z,10.50
2018-06-09T17:01:36.917Z,10.70
2018-06-09T17:04:12.069Z,10.95
2018-06-09T17:06:46.370Z,11.10
2018-06-09T17:09:20.587Z,11.80
2018-06-09T17:11:55.126Z,12.43
2018-06-09T17:14:29.291Z,12.55
2018-06-09T17:17:03.637Z,11.30
2018-06-09T17:19:37.876Z,12.45
2018-06-09T17:22:12.032Z,12.13
2018-06-09T17:24:46.156Z,12.47
2018-06-09T17:27:20.768Z,11.80
2018-06-09T17:29:55.076Z,12.58
2018-06-09T17:32:30.086Z,12.55
2018-06-09T17:35:04.322Z,11.40
2018-06-09T17:37:38.381Z,12.28
2018-06-09T17:40:12.311Z,14.38
2018-06-09T17:42:46.589Z,14.78
2018-06-09T17:45:21.051Z,13.93
2018-06-09T17:47:55.136Z,20.05
2018-06-09T17:50:29.220Z,15.23
2018-06-09T17:53:05.191Z,15.15
2018-06-09T17:55:39.242Z,16.30
2018-06-09T17:58:13.300Z,15.00
2018-06-09T18:00:48.212Z,15.28
2018-06-09T18:03:22.166Z,16.73
2018-06-09T18:05:55.985Z,15.60
2018-06-09T18:08:30.337Z,15.50
2018-06-09T18:11:04.491Z,15.98
2018-06-09T18:13:38.958Z,15.93
2018-06-09T18:16:13.496Z,16.87
2018-06-09T18:18:47.773Z,16.73
2018-06-09T18:21:21.784Z,15.50
2018-06-09T18:23:56.233Z,19.55
2018-06-09T18:26:30.398Z,17.77
2018-06-09T18:29:04.629Z,14.78
2018-06-09T18:31:38.930Z,16.65
2018-06-09T18:34:13.608Z,16.55
2018-06-09T18:36:47.912Z,15.28
2018-06-09T18:39:22.171Z,14.80
2018-06-09T18:41:56.340Z,15.00
2018-06-09T18:44:30.778Z,14.87
2018-06-09T18:47:05.198Z,14.70
2018-06-09T18:49:40.388Z,16.30
2018-06-09T18:52:18.773Z,17.12
2018-06-09T18:54:53.237Z,16.95
2018-06-09T18:57:27.423Z,17.12
2018-06-09T19:00:02.268Z,16.48
2018-06-09T19:02:36.353Z,17.00
2018-06-09T19:05:10.514Z,17.35
2018-06-09T19:07:44.869Z,16.20
2018-06-09T19:10:19.181Z,17.27
2018-06-09T19:12:53.347Z,16.32
2018-06-09T19:15:27.789Z,16.62
2018-06-09T19:18:02.262Z,16.77
2018-06-09T19:20:36.476Z,17.00
2018-06-09T19:23:10.983Z,18.02
2018-06-09T19:25:49.172Z,16.67
2018-06-09T19:28:23.338Z,17.37
2018-06-09T19:30:57.672Z,18.12
2018-06-09T19:33:31.798Z,15.88
2018-06-09T19:36:06.286Z,17.10
2018-06-09T19:38:40.511Z,16.35
2018-06-09T19:41:14.644Z,17.20
2018-06-09T19:43:48.868Z,16.23
2018-06-09T19:46:23.535Z,16.60
2018-06-09T19:48:58.837Z,18.05
2018-06-09T19:51:33.533Z,18.23
2018-06-09T19:54:07.943Z,18.90
2018-06-09T19:56:42.624Z,17.05
2018-06-09T19:59:17.146Z,18.45
2018-06-09T20:01:51.093Z,20.95
2018-06-09T20:04:25.466Z,21.45
2018-06-09T20:06:59.572Z,22.67
2018-06-09T20:09:34.072Z,22.58
2018-06-09T20:12:09.067Z,27.17
2018-06-09T20:14:43.872Z,28.50
2018-06-09T20:17:18.251Z,25.45
2018-06-09T20:19:52.562Z,24.18
2018-06-09T20:22:26.808Z,22.67
2018-06-09T20:25:01.176Z,22.62
2018-06-09T20:27:35.853Z,20.90
2018-06-09T20:30:10.322Z,21.68
2018-06-09T20:32:45.220Z,22.17
2018-06-09T20:35:20.072Z,23.32
2018-06-09T20:37:54.643Z,24.50
2018-06-09T20:40:29.543Z,21.02
2018-06-09T20:43:03.913Z,19.85
2018-06-09T20:45:38.141Z,20.43
2018-06-09T20:48:12.428Z,21.95
2018-06-09T20:50:47.645Z,21.33
2018-06-09T20:53:22.131Z,21.70
2018-06-09T20:55:56.222Z,19.67
2018-06-09T20:58:35.832Z,19.95
2018-06-09T21:01:09.968Z,22.85
2018-06-09T21:03:43.881Z,25.00
2018-06-09T21:06:18.331Z,21.35
2018-06-09T21:08:52.359Z,22.13
2018-06-09T21:11:26.492Z,22.95
2018-06-09T21:14:00.581Z,23.85
2018-06-09T21:16:37.763Z,22.22
2018-06-09T21:19:11.807Z,24.57
2018-06-09T21:21:45.842Z,21.82
2018-06-09T21:24:20.902Z,22.35
2018-06-09T21:27:00.504Z,22.93
2018-06-09T21:29:39.824Z,20.82
2018-06-09T21:32:53.288Z,21.60
2018-06-09T21:35:45.138Z,21.93
2018-06-09T21:38:27.327Z,24.10
2018-06-09T21:41:02.381Z,27.52
2018-06-09T21:43:41.916Z,26.02
2018-06-09T21:46:21.383Z,24.23
2018-06-09T21:48:55.461Z,23.47
2018-06-09T21:51:29.678Z,25.52
2018-06-09T21:54:04.331Z,26.25
2018-06-09T21:56:38.354Z,26.85
2018-06-09T21:59:13.072Z,26.50
2018-06-09T22:01:47.198Z,28.30
2018-06-09T22:04:21.778Z,26.77
2018-06-09T22:06:55.978Z,29.37
2018-06-09T22:09:30.878Z,28.17
2018-06-09T22:12:05.682Z,25.65
2018-06-09T22:14:40.084Z,29.77
2018-06-09T22:17:14.587Z,27.48
2018-06-09T22:19:49.196Z,28.32
2018-06-09T22:22:23.823Z,26.87
2018-06-09T22:24:57.994Z,28.23
2018-06-09T22:27:32.267Z,29.82
2018-06-09T22:30:06.973Z,29.40
2018-06-09T22:32:41.001Z,31.70
2018-06-09T22:35:15.262Z,30.52
2018-06-09T22:37:49.177Z,29.35
2018-06-09T22:40:23.322Z,25.20
2018-06-09T22:42:57.246Z,27.37
2018-06-09T22:45:31.862Z,25.10
2018-06-09T22:48:06.611Z,26.00
2018-06-09T22:50:41.115Z,26.60
2018-06-09T22:53:15.127Z,27.58
2018-06-09T22:55:49.062Z,27.02
2018-06-09T22:58:23.151Z,31.50
2018-06-09T23:00:57.147Z,28.55
2018-06-09T23:03:31.379Z,32.80
2018-06-09T23:06:05.187Z,31.93
2018-06-09T23:08:39.611Z,29.90
2018-06-09T23:11:13.618Z,33.92
2018-06-09T23:13:47.858Z,33.23
2018-06-09T23:16:21.636Z,31.25
2018-06-09T23:18:55.563Z,34.75
2018-06-09T23:21:29.663Z,32.23
2018-06-09T23:24:04.197Z,32.83
2018-06-09T23:26:38.264Z,31.68
2018-06-09T23:29:12.419Z,33.40
2018-06-09T23:31:46.584Z,33.33
2018-06-09T23:34:20.398Z,35.90
2018-06-09T23:36:54.467Z,36.28
2018-06-09T23:39:28.211Z,35.28
2018-06-09T23:42:02.784Z,31.68
2018-06-09T23:44:36.797Z,35.05
2018-06-09T23:47:10.952Z,35.33
2018-06-09T23:49:45.330Z,35.65
2018-06-09T23:52:19.596Z,32.08
2018-06-09T23:54:53.516Z,32.75
2018-06-09T23:57:27.552Z,34.20
